TimeEDT,TemperatureF,Dew PointF,Humidity,Sea Level PressureIn,VisibilityMPH,Wind Direction,Wind SpeedMPH,Gust SpeedMPH,PrecipitationIn,Events,Conditions,WindDirDegrees,DateUTC
12:54 AM,71.1,50.0,47,29.89,10.0,SW,6.9,-,N/A,,Clear,220,2013-05-16 04:54:00
1:54 AM,71.1,50.0,47,29.89,10.0,SW,6.9,-,N/A,,Clear,230,2013-05-16 05:54:00
2:54 AM,69.1,50.0,51,29.89,10.0,SW,8.1,-,N/A,,Clear,230,2013-05-16 06:54:00
3:54 AM,68.0,48.9,50,29.88,10.0,SW,6.9,-,N/A,,Clear,220,2013-05-16 07:54:00
4:54 AM,69.1,48.0,47,29.88,10.0,SW,10.4,-,N/A,,Clear,220,2013-05-16 08:54:00
5:54 AM,69.1,46.9,45,29.90,10.0,SW,9.2,-,N/A,,Mostly Cloudy,230,2013-05-16 09:54:00
6:54 AM,69.1,46.9,45,29.91,10.0,WSW,9.2,-,N/A,,Mostly Cloudy,240,2013-05-16 10:54:00
7:54 AM,69.1,48.9,49,29.93,10.0,WSW,9.2,-,N/A,,Mostly Cloudy,240,2013-05-16 11:54:00
8:54 AM,71.1,51.1,49,29.92,10.0,SW,10.4,-,N/A,,Scattered Clouds,230,2013-05-16 12:54:00
9:54 AM,72.0,52.0,49,29.93,10.0,WSW,13.8,20.7,N/A,,Mostly Cloudy,240,2013-05-16 13:54:00
10:54 AM,75.0,55.0,50,29.94,10.0,WSW,9.2,17.3,N/A,,Mostly Cloudy,250,2013-05-16 14:54:00
11:54 AM,75.0,55.9,51,29.94,10.0,SW,11.5,-,N/A,,Overcast,230,2013-05-16 15:54:00
12:54 PM,73.9,57.0,55,29.95,10.0,West,8.1,16.1,N/A,,Overcast,260,2013-05-16 16:54:00
1:54 PM,75.0,59.0,57,29.94,10.0,Calm,Calm,-,N/A,,Overcast,0,2013-05-16 17:54:00
2:39 PM,77.0,59.0,54,29.95,10.0,Variable,3.5,-,N/A,Thunderstorm,Thunderstorm,0,2013-05-16 18:39:00
2:54 PM,75.2,59.0,57,29.95,10.0,Calm,Calm,-,N/A,Thunderstorm,Thunderstorm,0,2013-05-16 18:54:00
3:46 PM,68.0,64.4,88,29.96,6.0,Calm,Calm,-,0.34,Rain-Thunderstorm,Light Thunderstorms and Rain,0,2013-05-16 19:46:00
3:54 PM,66.9,64.0,90,29.94,8.0,Calm,Calm,-,0.34,Thunderstorm,Thunderstorm,0,2013-05-16 19:54:00
4:28 PM,64.4,62.6,94,29.99,2.0,North,16.1,28.8,0.16,Rain-Thunderstorm,Heavy Thunderstorms and Rain,10,2013-05-16 20:28:00
4:54 PM,64.9,62.1,90,29.98,5.0,Variable,3.5,-,0.42,Rain-Thunderstorm,Light Thunderstorms and Rain,0,2013-05-16 20:54:00
5:34 PM,66.2,62.6,88,29.98,7.0,SSE,4.6,-,0.00,,Overcast,150,2013-05-16 21:34:00
5:54 PM,66.2,62.6,88,29.99,7.0,WSW,3.5,-,N/A,Rain,Light Rain,250,2013-05-16 21:54:00
6:34 PM,66.2,60.8,83,30.01,7.0,SW,5.8,-,0.01,Rain,Light Rain,230,2013-05-16 22:34:00
6:54 PM,66.0,62.1,87,29.99,7.0,South,6.9,-,0.01,Rain,Light Rain,190,2013-05-16 22:54:00
7:54 PM,66.0,62.1,87,29.99,9.0,SE,3.5,-,0.00,,Mostly Cloudy,140,2013-05-16 23:54:00
8:54 PM,64.0,61.0,90,29.97,9.0,South,3.5,-,N/A,,Scattered Clouds,190,2013-05-17 00:54:00
9:54 PM,64.0,60.1,87,29.99,10.0,Calm,Calm,-,N/A,,Scattered Clouds,0,2013-05-17 01:54:00
10:43 PM,62.6,60.8,94,30.03,4.0,Calm,Calm,-,N/A,,Scattered Clouds,0,2013-05-17 02:43:00
10:49 PM,62.6,60.8,94,30.03,2.0,Calm,Calm,-,N/A,,Mostly Cloudy,0,2013-05-17 02:49:00
10:54 PM,62.1,60.1,93,30.01,2.0,Calm,Calm,-,N/A,,Mostly Cloudy,0,2013-05-17 02:54:00
11:54 PM,61.0,60.1,97,30.01,2.0,SSE,3.5,-,N/A,,Overcast,160,2013-05-17 03:54:00